createdAt,value
2023-04-13T00:00:53.132Z,32.93
2023-04-13T00:03:21.057Z,33.10
2023-04-13T00:05:49.089Z,33.00
2023-04-13T00:08:17.436Z,32.90
2023-04-13T00:10:46.336Z,32.90
2023-04-13T00:13:15.206Z,33.01
2023-04-13T00:15:44.003Z,32.69
2023-04-13T00:18:12.391Z,32.33
2023-04-13T00:20:42.125Z,32.49
2023-04-13T00:23:10.263Z,32.43
2023-04-13T00:25:37.885Z,32.36
2023-04-13T00:28:06.793Z,32.23
2023-04-13T00:30:34.571Z,32.38
2023-04-13T00:33:05.163Z,31.95
2023-04-13T00:35:32.899Z,32.14
2023-04-13T00:38:03.313Z,32.05
2023-04-13T00:40:30.918Z,31.73
2023-04-13T00:42:58.615Z,31.43
2023-04-13T00:45:26.596Z,31.78
2023-04-13T00:47:54.425Z,32.00
2023-04-13T00:50:22.109Z,31.68
2023-04-13T00:52:50.082Z,31.51
2023-04-13T00:55:21.675Z,31.75
2023-04-13T00:57:53.580Z,31.53
2023-04-13T01:00:22.488Z,31.87
2023-04-13T01:02:51.553Z,32.15
2023-04-13T01:05:19.978Z,31.62
2023-04-13T01:07:53.917Z,32.25
2023-04-13T01:10:27.965Z,31.90
2023-04-13T01:13:04.663Z,31.76
2023-04-13T01:15:40.357Z,31.93
2023-04-13T01:18:10.290Z,31.93
2023-04-13T01:20:41.752Z,32.06
2023-04-13T01:23:31.560Z,32.35
2023-04-13T01:26:02.580Z,32.19
2023-04-13T01:28:31.495Z,32.04
2023-04-13T01:31:01.729Z,32.17
2023-04-13T01:33:30.982Z,32.27
2023-04-13T01:36:02.422Z,32.62
2023-04-13T01:38:31.612Z,32.34
2023-04-13T01:41:01.469Z,32.14
2023-04-13T01:43:31.813Z,32.52
2023-04-13T01:46:16.259Z,32.69
2023-04-13T01:48:56.880Z,32.49
2023-04-13T01:51:48.604Z,32.48
2023-04-13T01:54:26.026Z,32.55
2023-04-13T01:56:57.410Z,32.43
2023-04-13T01:59:25.319Z,32.27
2023-04-13T02:01:53.008Z,32.55
2023-04-13T02:04:21.429Z,32.14
2023-04-13T02:06:51.800Z,31.98
2023-04-13T02:09:28.458Z,32.26
2023-04-13T02:11:56.423Z,32.29
2023-04-13T02:14:23.876Z,31.96
2023-04-13T02:16:54.020Z,32.13
2023-04-13T02:19:22.124Z,31.93
2023-04-13T02:21:49.520Z,31.64
2023-04-13T02:24:18.770Z,31.86
2023-04-13T02:26:46.365Z,31.45
2023-04-13T02:29:13.929Z,30.69
2023-04-13T02:31:44.574Z,29.85
2023-04-13T02:34:12.016Z,28.60
2023-04-13T02:36:40.862Z,27.35
2023-04-13T02:39:09.972Z,26.20
2023-04-13T02:44:38.966Z,24.51
2023-04-13T02:47:11.219Z,23.80
2023-04-13T02:49:57.462Z,23.00
2023-04-13T02:52:45.415Z,21.69
2023-04-13T02:55:13.426Z,21.36
2023-04-13T02:57:50.324Z,20.59
2023-04-13T03:00:18.834Z,19.94
2023-04-13T03:02:53.472Z,19.53
2023-04-13T03:05:22.916Z,19.41
2023-04-13T03:07:50.331Z,18.67
2023-04-13T03:10:19.287Z,18.22
2023-04-13T03:12:48.209Z,18.07
2023-04-13T03:15:18.469Z,17.61
2023-04-13T03:17:46.196Z,16.95
2023-04-13T03:20:23.860Z,16.57
2023-04-13T03:22:57.428Z,16.27
2023-04-13T03:25:26.356Z,15.94
2023-04-13T03:27:53.902Z,16.06
2023-04-13T03:30:23.679Z,15.92
2023-04-13T03:33:01.196Z,15.60
2023-04-13T03:35:32.558Z,15.38
2023-04-13T03:38:02.635Z,15.13
2023-04-13T03:40:39.016Z,14.94
2023-04-13T03:43:06.894Z,14.91
2023-04-13T03:45:38.292Z,15.23
2023-04-13T03:48:11.232Z,15.22
2023-04-13T03:50:38.799Z,15.41
2023-04-13T03:53:08.266Z,15.26
2023-04-13T03:55:37.978Z,15.77
2023-04-13T03:58:07.987Z,15.99
2023-04-13T04:00:36.063Z,15.87
2023-04-13T04:03:11.973Z,16.20
2023-04-13T04:05:52.072Z,16.07
2023-04-13T04:08:19.675Z,15.81
2023-04-13T04:10:48.648Z,16.14
2023-04-13T04:13:17.710Z,15.84
2023-04-13T04:15:50.265Z,15.66
2023-04-13T04:18:18.157Z,15.68
2023-04-13T04:20:45.754Z,15.65
2023-04-13T04:23:14.295Z,15.81
2023-04-13T04:25:52.232Z,16.02
2023-04-13T04:28:20.317Z,15.99
2023-04-13T04:30:54.617Z,15.93
2023-04-13T04:33:25.918Z,16.14
2023-04-13T04:35:54.579Z,16.23
2023-04-13T04:38:27.808Z,16.60
2023-04-13T04:40:58.002Z,16.04
2023-04-13T04:43:27.486Z,16.49
2023-04-13T04:45:58.025Z,16.44
2023-04-13T04:48:27.266Z,16.58
2023-04-13T04:50:58.590Z,16.67
2023-04-13T04:53:31.309Z,17.22
2023-04-13T04:55:58.918Z,17.20
2023-04-13T04:58:43.601Z,17.22
2023-04-13T05:01:11.248Z,16.05
2023-04-13T05:03:39.769Z,16.01
2023-04-13T05:06:33.097Z,15.70
2023-04-13T05:09:02.776Z,14.82
2023-04-13T05:11:32.549Z,14.05
2023-04-13T05:14:02.559Z,13.76
2023-04-13T05:16:31.070Z,13.49
2023-04-13T05:19:08.210Z,13.08
2023-04-13T05:21:53.422Z,12.84
2023-04-13T05:24:22.488Z,12.44
2023-04-13T05:26:51.966Z,12.47
2023-04-13T05:29:22.962Z,11.73
2023-04-13T05:31:51.413Z,11.49
2023-04-13T05:34:20.208Z,11.44
2023-04-13T05:37:06.408Z,10.88
2023-04-13T05:39:34.179Z,10.78
2023-04-13T05:42:02.227Z,10.20
2023-04-13T05:44:33.089Z,9.74
2023-04-13T05:47:02.509Z,9.84
2023-04-13T05:49:33.353Z,10.09
2023-04-13T05:52:01.277Z,9.74
2023-04-13T05:54:40.142Z,9.78
2023-04-13T05:57:08.001Z,9.75
2023-04-13T05:59:38.703Z,9.72
2023-04-13T06:02:07.205Z,10.07
2023-04-13T06:04:36.806Z,9.81
2023-04-13T06:07:07.449Z,9.57
2023-04-13T06:09:35.062Z,9.33
2023-04-13T06:12:03.079Z,9.29
2023-04-13T06:14:30.651Z,9.06
2023-04-13T06:16:58.332Z,9.12
2023-04-13T06:19:29.166Z,8.90
2023-04-13T06:21:57.404Z,8.40
2023-04-13T06:24:24.828Z,8.46
2023-04-13T06:26:52.588Z,8.60
2023-04-13T06:29:20.855Z,8.21
2023-04-13T06:32:01.615Z,8.29
2023-04-13T06:34:29.209Z,7.97
2023-04-13T06:36:57.819Z,7.69
2023-04-13T06:39:28.799Z,7.56
2023-04-13T06:42:01.373Z,7.35
2023-04-13T06:45:01.335Z,7.87
2023-04-13T06:47:36.363Z,7.47
2023-04-13T06:50:07.005Z,7.39
2023-04-13T06:52:40.685Z,7.51
2023-04-13T06:55:08.654Z,7.46
2023-04-13T06:57:40.869Z,7.79
2023-04-13T07:00:25.984Z,7.84
2023-04-13T07:02:58.920Z,7.78
2023-04-13T07:05:26.836Z,7.50
2023-04-13T07:07:58.788Z,8.06
2023-04-13T07:10:26.957Z,8.16
2023-04-13T07:12:56.892Z,8.12
2023-04-13T07:15:27.752Z,7.96
2023-04-13T07:17:56.262Z,8.36
2023-04-13T07:20:23.870Z,8.78
2023-04-13T07:22:51.620Z,8.62
2023-04-13T07:25:19.340Z,8.96
2023-04-13T07:27:47.418Z,8.99
2023-04-13T07:30:16.737Z,9.33
2023-04-13T07:32:47.093Z,9.57
2023-04-13T07:35:14.800Z,9.60
2023-04-13T07:37:44.833Z,9.70
2023-04-13T07:40:15.356Z,10.09
2023-04-13T07:42:50.303Z,9.91
2023-04-13T07:45:20.290Z,9.93
2023-04-13T07:47:48.833Z,10.53
2023-04-13T07:50:18.252Z,10.21
2023-04-13T07:52:47.528Z,10.87
2023-04-13T07:55:20.061Z,11.18
2023-04-13T07:57:49.462Z,10.98
2023-04-13T08:00:20.720Z,11.23
2023-04-13T08:02:54.681Z,11.27
2023-04-13T08:05:26.400Z,11.38
2023-04-13T08:07:54.118Z,11.25
2023-04-13T08:10:22.006Z,11.28
2023-04-13T08:12:49.564Z,11.42
2023-04-13T08:15:19.637Z,11.49
2023-04-13T08:17:47.633Z,11.20
2023-04-13T08:20:16.325Z,11.55
2023-04-13T08:22:46.622Z,11.70
2023-04-13T08:25:14.126Z,11.73
2023-04-13T08:27:41.914Z,11.96
2023-04-13T08:30:14.764Z,11.89
2023-04-13T08:32:54.177Z,12.14
2023-04-13T08:35:23.724Z,11.89
2023-04-13T08:37:54.155Z,12.07
2023-04-13T08:40:22.948Z,12.00
2023-04-13T08:42:56.265Z,12.04
2023-04-13T08:45:24.198Z,12.28
2023-04-13T08:47:51.852Z,12.76
2023-04-13T08:50:23.247Z,12.68
2023-04-13T08:52:54.549Z,13.27
2023-04-13T08:55:24.245Z,12.90
2023-04-13T08:57:57.270Z,12.84
2023-04-13T09:00:25.644Z,12.66
2023-04-13T09:03:05.712Z,13.17
2023-04-13T09:05:41.590Z,13.14
2023-04-13T09:08:16.261Z,13.02
2023-04-13T09:11:00.706Z,13.16
2023-04-13T09:13:28.308Z,13.21
2023-04-13T09:15:57.107Z,13.44
2023-04-13T09:18:52.624Z,13.46
2023-04-13T09:21:20.449Z,13.18
2023-04-13T09:23:58.970Z,13.23
2023-04-13T09:26:27.365Z,13.43
2023-04-13T09:28:58.470Z,13.62
2023-04-13T09:31:26.332Z,13.57
2023-04-13T09:33:53.876Z,14.12
2023-04-13T09:36:22.962Z,14.18
2023-04-13T09:38:56.356Z,14.00
2023-04-13T09:41:38.856Z,13.90
2023-04-13T09:44:21.466Z,14.16
2023-04-13T09:47:02.397Z,14.11
2023-04-13T09:49:57.715Z,14.30
2023-04-13T09:52:27.093Z,14.79
2023-04-13T09:54:57.539Z,14.90
2023-04-13T09:57:29.555Z,15.01
2023-04-13T10:00:01.370Z,15.10
2023-04-13T10:02:39.993Z,15.17
2023-04-13T10:05:10.523Z,14.94
2023-04-13T10:07:38.494Z,15.37
2023-04-13T10:10:09.333Z,15.45
2023-04-13T10:12:48.008Z,15.31
2023-04-13T10:18:37.104Z,15.87
2023-04-13T10:21:07.458Z,15.99
2023-04-13T10:23:35.676Z,15.87
2023-04-13T10:26:04.395Z,15.74
2023-04-13T10:28:43.535Z,15.68
2023-04-13T10:31:11.151Z,15.77
2023-04-13T10:33:57.582Z,16.01
2023-04-13T10:36:38.687Z,16.44
2023-04-13T10:39:06.563Z,17.34
2023-04-13T10:41:34.543Z,17.57
2023-04-13T10:44:09.246Z,17.92
2023-04-13T10:46:37.007Z,18.24
2023-04-13T10:49:05.425Z,18.41
2023-04-13T10:51:59.394Z,17.40
2023-04-13T10:54:30.123Z,18.94
2023-04-13T10:57:03.998Z,19.15
2023-04-13T10:59:56.179Z,19.44
2023-04-13T11:02:27.010Z,20.65
2023-04-13T11:04:55.225Z,21.21
2023-04-13T11:07:26.336Z,21.58
2023-04-13T11:12:30.730Z,22.50
2023-04-13T11:14:58.296Z,22.81
2023-04-13T11:17:25.864Z,23.26
2023-04-13T11:19:55.102Z,23.88
2023-04-13T11:22:28.140Z,23.98
2023-04-13T11:25:09.313Z,23.71
2023-04-13T11:27:38.279Z,24.49
2023-04-13T11:30:09.952Z,24.26
2023-04-13T11:32:41.878Z,24.64
2023-04-13T11:35:16.894Z,24.91
2023-04-13T11:37:49.119Z,25.05
2023-04-13T11:40:21.650Z,25.36
2023-04-13T11:43:00.398Z,25.07
2023-04-13T11:45:29.700Z,25.29
2023-04-13T11:47:58.301Z,25.27
2023-04-13T11:50:26.423Z,25.68
2023-04-13T11:52:57.414Z,25.47
2023-04-13T11:55:25.912Z,25.81
2023-04-13T11:57:54.679Z,26.51
2023-04-13T12:00:24.805Z,26.49
2023-04-13T12:05:33.607Z,26.49
2023-04-13T12:08:04.619Z,27.00
2023-04-13T12:10:46.708Z,27.47
2023-04-13T12:13:35.987Z,28.07
2023-04-13T12:16:11.210Z,28.07
2023-04-13T12:18:49.596Z,28.41
2023-04-13T12:21:20.305Z,27.72
2023-04-13T12:23:58.557Z,28.22
2023-04-13T12:29:09.461Z,29.10
2023-04-13T12:31:39.501Z,29.86
2023-04-13T12:34:11.116Z,30.28
2023-04-13T12:36:38.603Z,30.48
2023-04-13T12:39:07.103Z,30.22
2023-04-13T12:41:34.635Z,30.49
2023-04-13T12:44:02.116Z,29.01
2023-04-13T12:46:29.962Z,30.41
2023-04-13T12:48:57.613Z,30.24
2023-04-13T12:51:26.529Z,30.58
2023-04-13T12:53:53.910Z,31.30
2023-04-13T12:56:21.391Z,31.68
2023-04-13T12:58:49.003Z,32.04
2023-04-13T13:01:16.524Z,31.69
2023-04-13T13:03:45.612Z,31.87
2023-04-13T13:06:13.112Z,31.51
2023-04-13T13:08:40.666Z,31.51
2023-04-13T13:11:11.519Z,31.62
2023-04-13T13:13:39.020Z,32.43
2023-04-13T13:16:06.939Z,32.89
2023-04-13T13:18:47.043Z,32.70
2023-04-13T13:21:17.621Z,32.55
2023-04-13T13:23:45.996Z,32.76
2023-04-13T13:26:23.765Z,32.79
2023-04-13T13:28:52.762Z,33.45
2023-04-13T13:31:20.425Z,33.19
2023-04-13T13:33:48.038Z,33.62
2023-04-13T13:36:15.681Z,33.66
2023-04-13T13:38:43.683Z,36.19
2023-04-13T13:41:12.202Z,36.67
2023-04-13T13:43:40.317Z,37.38
2023-04-13T13:46:08.009Z,36.00
2023-04-13T13:48:38.125Z,35.00
2023-04-13T13:51:36.078Z,35.20
2023-04-13T13:54:06.043Z,33.78
2023-04-13T13:56:33.813Z,35.64
2023-04-13T13:59:01.747Z,43.88
2023-04-13T14:01:32.534Z,43.30
2023-04-13T14:04:02.454Z,43.78
2023-04-13T14:06:32.748Z,49.58
2023-04-13T14:09:00.767Z,52.56
2023-04-13T14:11:28.818Z,53.62
2023-04-13T14:13:56.570Z,51.44
2023-04-13T14:16:26.226Z,52.79
2023-04-13T14:18:56.094Z,51.40
2023-04-13T14:21:23.801Z,48.45
2023-04-13T14:23:54.474Z,52.69
2023-04-13T14:26:24.224Z,52.68
2023-04-13T14:28:52.160Z,52.36
2023-04-13T14:31:19.843Z,57.58
2023-04-13T14:33:47.539Z,63.42
2023-04-13T14:36:17.221Z,63.88
2023-04-13T14:38:44.927Z,54.87
2023-04-13T14:41:12.544Z,56.26
2023-04-13T14:43:40.286Z,59.97
2023-04-13T14:46:09.230Z,58.10
2023-04-13T14:48:37.045Z,60.89
2023-04-13T14:51:04.778Z,60.61
2023-04-13T14:53:32.488Z,63.45
2023-04-13T14:56:00.222Z,65.64
2023-04-13T14:58:29.313Z,65.45
2023-04-13T15:00:57.048Z,65.56
2023-04-13T15:03:24.734Z,66.40
2023-04-13T15:06:29.222Z,70.46
2023-04-13T15:08:56.804Z,67.40
2023-04-13T15:11:27.604Z,68.13
2023-04-13T15:13:55.270Z,69.88
2023-04-13T15:16:24.605Z,72.53
2023-04-13T15:18:52.242Z,72.95
2023-04-13T15:21:19.904Z,74.12
2023-04-13T15:23:47.622Z,74.97
2023-04-13T15:26:19.048Z,76.29
2023-04-13T15:28:47.993Z,75.44
2023-04-13T15:31:15.856Z,74.04
2023-04-13T15:33:43.564Z,73.76
2023-04-13T15:36:16.234Z,74.87
2023-04-13T15:39:03.967Z,75.28
2023-04-13T15:41:35.013Z,75.11
2023-04-13T15:44:03.840Z,72.23
2023-04-13T15:46:37.540Z,72.35
2023-04-13T15:49:05.238Z,73.54
2023-04-13T15:51:33.223Z,79.47
2023-04-13T15:54:03.835Z,83.52
2023-04-13T15:56:31.747Z,81.28
2023-04-13T15:58:59.660Z,85.00
2023-04-13T16:01:27.974Z,81.27
2023-04-13T16:03:56.098Z,84.41
2023-04-13T16:06:24.093Z,86.70
2023-04-13T16:08:51.615Z,85.67
2023-04-13T16:11:21.158Z,81.65
2023-04-13T16:13:50.052Z,83.18
2023-04-13T16:16:21.334Z,84.03
2023-04-13T16:18:49.612Z,83.95
2023-04-13T16:21:19.802Z,86.63
2023-04-13T16:23:47.601Z,88.69
2023-04-13T16:26:15.144Z,90.33
2023-04-13T16:28:42.913Z,89.35
2023-04-13T16:31:11.502Z,87.81
2023-04-13T16:33:56.094Z,89.22
2023-04-13T16:36:27.670Z,88.23
2023-04-13T16:38:55.326Z,92.23
2023-04-13T16:41:23.835Z,94.98
2023-04-13T16:43:51.610Z,91.07
2023-04-13T16:46:19.280Z,89.32
2023-04-13T16:48:46.966Z,91.17
2023-04-13T16:51:14.589Z,90.58
2023-04-13T16:53:44.438Z,95.91
2023-04-13T16:56:13.850Z,87.90
2023-04-13T16:58:43.398Z,85.79
2023-04-13T17:01:11.168Z,90.35
2023-04-13T17:03:39.018Z,85.48
2023-04-13T17:06:07.472Z,90.92
2023-04-13T17:08:35.024Z,91.58
2023-04-13T17:11:02.944Z,90.66
2023-04-13T17:13:30.525Z,88.16
2023-04-13T17:15:58.167Z,89.87
2023-04-13T17:18:26.236Z,91.73
2023-04-13T17:20:55.282Z,87.49
2023-04-13T17:23:23.773Z,86.58
2023-04-13T17:25:54.653Z,91.96
2023-04-13T17:28:23.728Z,94.52
2023-04-13T17:30:51.678Z,95.74
2023-04-13T17:33:19.420Z,94.05
2023-04-13T17:35:47.822Z,92.53
2023-04-13T17:38:15.619Z,97.89
2023-04-13T17:40:43.326Z,95.10
2023-04-13T17:43:11.267Z,95.04
2023-04-13T17:45:40.454Z,87.91
2023-04-13T17:48:08.777Z,90.88
2023-04-13T17:50:36.492Z,97.29
2023-04-13T17:53:04.792Z,92.27
2023-04-13T17:55:33.750Z,86.71
2023-04-13T17:58:01.453Z,79.91
2023-04-13T18:00:29.464Z,81.84
2023-04-13T18:02:58.381Z,81.65
2023-04-13T18:05:27.077Z,79.77
2023-04-13T18:07:54.830Z,82.79
2023-04-13T18:10:22.434Z,88.37
2023-04-13T18:12:50.179Z,86.15
2023-04-13T18:15:21.165Z,81.43
2023-04-13T18:17:48.894Z,82.60
2023-04-13T18:20:16.494Z,77.50
2023-04-13T18:22:44.425Z,76.85
2023-04-13T18:25:15.183Z,73.06
2023-04-13T18:27:44.094Z,66.74
2023-04-13T18:30:12.497Z,62.60
2023-04-13T18:32:40.248Z,63.36
2023-04-13T18:35:08.262Z,72.97
2023-04-13T18:37:35.903Z,73.38
2023-04-13T18:40:05.664Z,71.63
2023-04-13T18:42:33.842Z,77.80
2023-04-13T18:45:01.425Z,70.42
2023-04-13T18:47:30.697Z,73.24
2023-04-13T18:49:58.615Z,71.97
2023-04-13T18:52:26.674Z,69.55
2023-04-13T18:54:54.726Z,68.32
2023-04-13T18:57:28.962Z,66.54
2023-04-13T19:00:11.822Z,66.84
2023-04-13T19:02:42.615Z,58.43
2023-04-13T19:05:12.824Z,59.21
2023-04-13T19:07:47.521Z,59.59
2023-04-13T19:10:15.098Z,63.41
2023-04-13T19:12:43.037Z,68.07
2023-04-13T19:15:11.278Z,67.41
2023-04-13T19:17:39.006Z,60.62
2023-04-13T19:20:10.365Z,59.49
2023-04-13T19:22:38.789Z,63.62
2023-04-13T19:25:14.284Z,63.44
2023-04-13T19:27:44.910Z,63.27
2023-04-13T19:30:14.008Z,56.79
2023-04-13T19:32:44.878Z,55.87
2023-04-13T19:35:13.164Z,56.26
2023-04-13T19:37:42.108Z,52.71
2023-04-13T19:40:10.653Z,55.63
2023-04-13T19:42:38.340Z,55.81
2023-04-13T19:45:06.431Z,55.97
2023-04-13T19:47:33.838Z,60.97
2023-04-13T19:50:01.485Z,62.98
2023-04-13T19:52:30.025Z,59.54
2023-04-13T19:54:57.694Z,55.12
2023-04-13T19:57:25.346Z,56.63
2023-04-13T19:59:53.004Z,58.72
2023-04-13T20:02:20.774Z,58.87
2023-04-13T20:04:50.553Z,57.37
2023-04-13T20:07:18.567Z,55.34
2023-04-13T20:09:46.684Z,53.90
2023-04-13T20:12:14.487Z,53.31
2023-04-13T20:14:42.906Z,54.30
2023-04-13T20:17:11.471Z,56.67
2023-04-13T20:19:39.151Z,51.77
2023-04-13T20:22:07.347Z,52.73
2023-04-13T20:24:34.927Z,51.55
2023-04-13T20:27:02.364Z,53.17
2023-04-13T20:29:30.069Z,55.80
2023-04-13T20:31:57.965Z,51.75
2023-04-13T20:34:27.767Z,54.50
2023-04-13T20:36:56.755Z,54.60
2023-04-13T20:39:30.150Z,54.11
2023-04-13T20:41:57.914Z,52.73
2023-04-13T20:44:26.117Z,54.91
2023-04-13T20:46:57.313Z,52.63
2023-04-13T20:49:24.938Z,52.18
2023-04-13T20:51:57.587Z,52.11
2023-04-13T20:54:25.087Z,53.49
2023-04-13T20:56:52.504Z,54.27
2023-04-13T20:59:20.033Z,52.79
2023-04-13T21:01:49.108Z,51.88
2023-04-13T21:04:17.097Z,51.73
2023-04-13T21:06:45.248Z,56.56
2023-04-13T21:09:14.247Z,55.23
2023-04-13T21:11:44.933Z,51.75
2023-04-13T21:14:12.397Z,52.08
2023-04-13T21:16:39.869Z,49.63
2023-04-13T21:19:07.499Z,52.97
2023-04-13T21:21:36.263Z,52.79
2023-04-13T21:24:03.727Z,52.49
2023-04-13T21:26:31.278Z,53.23
2023-04-13T21:28:58.711Z,52.85
2023-04-13T21:31:26.206Z,58.43
2023-04-13T21:33:55.003Z,52.46
2023-04-13T21:38:53.239Z,55.49
2023-04-13T21:41:21.882Z,54.48
2023-04-13T21:43:49.414Z,55.65
2023-04-13T21:46:17.342Z,53.74
2023-04-13T21:48:44.809Z,53.38
2023-04-13T21:51:12.363Z,51.54
2023-04-13T21:53:39.828Z,53.08
2023-04-13T21:56:07.753Z,52.07
2023-04-13T21:58:40.476Z,51.00
2023-04-13T22:01:08.654Z,51.02
2023-04-13T22:03:41.504Z,57.42
2023-04-13T22:06:11.419Z,54.76
2023-04-13T22:08:39.421Z,51.47
2023-04-13T22:11:07.581Z,51.23
2023-04-13T22:13:35.109Z,53.41
2023-04-13T22:16:02.819Z,53.14
2023-04-13T22:18:30.392Z,51.74
2023-04-13T22:21:00.152Z,50.96
2023-04-13T22:23:27.818Z,51.64
2023-04-13T22:26:01.891Z,51.54
2023-04-13T22:28:31.311Z,48.10
2023-04-13T22:31:05.632Z,53.12
2023-04-13T22:33:36.321Z,48.64
2023-04-13T22:36:04.742Z,48.54
2023-04-13T22:38:32.719Z,51.40
2023-04-13T22:41:06.676Z,51.92
2023-04-13T22:43:34.055Z,52.10
2023-04-13T22:46:01.666Z,46.54
2023-04-13T22:48:30.012Z,49.32
2023-04-13T22:51:01.688Z,55.55
2023-04-13T22:53:29.801Z,53.24
2023-04-13T22:55:57.387Z,49.13
2023-04-13T22:58:24.819Z,51.06
2023-04-13T23:00:52.414Z,49.08
2023-04-13T23:03:20.265Z,47.42
2023-04-13T23:05:47.883Z,52.60
2023-04-13T23:08:15.290Z,48.91
2023-04-13T23:10:42.793Z,47.97
2023-04-13T23:13:10.199Z,51.30
2023-04-13T23:15:38.280Z,56.66
2023-04-13T23:18:06.080Z,50.90
2023-04-13T23:20:33.656Z,48.31
2023-04-13T23:23:01.532Z,46.26
2023-04-13T23:25:29.100Z,49.14
2023-04-13T23:27:56.629Z,51.88
2023-04-13T23:30:24.060Z,50.46
2023-04-13T23:32:51.704Z,51.71
2023-04-13T23:35:19.291Z,48.00
2023-04-13T23:37:46.906Z,48.31
2023-04-13T23:40:14.478Z,49.98
2023-04-13T23:42:42.129Z,51.70
2023-04-13T23:45:09.864Z,50.42
2023-04-13T23:47:38.210Z,47.79
2023-04-13T23:50:06.418Z,49.14
2023-04-13T23:52:34.381Z,50.16
2023-04-13T23:55:01.939Z,48.04
2023-04-13T23:57:36.583Z,49.64
